Olympia, Washington
Current Conditions -  °F | °C
As of 12:54 PM on Saturday 22 Nov 2014 (Local Time) from KOLM Reporting Station
Broken Clouds Broken Clouds  
Wind Chill: 45°   Ceiling: 8000
Heat Index: 49°   Visibility: 10mi
Dew Point: 44°   Wind: 10mph
Humidity: 83%   Direction: 230°SW
Pressure: 29.89"   Gusts: NA
Location:  47.04°N, 122.89°W
Report Text: KOLM 222054Z 23009KT 10SM FEW010 SCT032 BKN080 09/07 A2989 RMK AO2 SLP122 60001 T00940067 53032
Loading
Personal Weather Stations






























Interactive Weather Map New forecast layout! Learn more

10-Day Weather Forecast

Advertisements
Track Severe Weather on mobile